Time;durP1;ratioP1;P1;durP2;ratioP2;P2;SDS_P1;SDS_P2;PMS_P1;PMS_P2;Temp;Humidity;BMP_temperature;BMP_pressure;BME280_temperature;BME280_humidity;BME280_pressure;Samples;Min_cycle;Max_cycle;Signal;HPM_P1;HPM_P2
2022/10/20 00:03:57;;;;;;;1.70;0.77;;;9.90;99.90;;;;;;20960865;28;20033;-60
2022/10/20 00:14:01;;;;;;;4.88;0.70;;;9.90;99.90;;;;;;20959455;28;20067;-65
2022/10/20 00:24:03;;;;;;;5.00;1.00;;;9.70;99.90;;;;;;20959518;28;20032;-66
2022/10/20 00:34:06;;;;;;;3.03;0.80;;;9.70;99.90;;;;;;20975100;28;20103;-61
2022/10/20 00:44:51;;;;;;;2.40;0.80;;;9.60;99.90;;;;;;20998526;28;20105;-65
2022/10/20 00:54:53;;;;;;;3.42;1.00;;;9.40;99.90;;;;;;21049116;28;20044;-61
2022/10/20 01:04:56;;;;;;;1.90;1.10;;;9.30;99.90;;;;;;21018427;28;20032;-60
2022/10/20 01:15:18;;;;;;;4.00;1.15;;;9.30;99.90;;;;;;21027324;28;20501;-60
2022/10/20 01:25:44;;;;;;;3.33;0.75;;;9.50;99.90;;;;;;21033426;28;20063;-61
2022/10/20 01:36:11;;;;;;;1.92;0.90;;;9.60;99.90;;;;;;21011008;28;20098;-61
2022/10/20 01:46:17;;;;;;;1.83;0.85;;;9.60;99.90;;;;;;20964460;28;20448;-66
2022/10/20 01:56:33;;;;;;;5.20;1.00;;;9.60;99.90;;;;;;20952712;28;20044;-61
2022/10/20 02:06:58;;;;;;;2.38;1.23;;;9.60;99.90;;;;;;20972605;28;20508;-66
2022/10/20 02:17:10;;;;;;;7.47;1.70;;;9.50;99.90;;;;;;20951778;28;20036;-66
2022/10/20 02:27:20;;;;;;;4.00;1.20;;;9.50;99.90;;;;;;20967672;28;20037;-60
2022/10/20 02:37:23;;;;;;;;;;;9.20;99.90;;;;;;20972345;28;20036;-61
2022/10/20 02:47:25;;;;;;;4.55;1.33;;;9.00;99.90;;;;;;20986169;28;19920;-60
2022/10/20 02:57:28;;;;;;;3.85;1.70;;;8.80;99.90;;;;;;20931978;28;20037;-60
2022/10/20 03:07:30;;;;;;;4.75;1.88;;;8.70;99.90;;;;;;20939518;28;20479;-65
2022/10/20 03:17:33;;;;;;;4.05;1.83;;;8.60;99.90;;;;;;20948722;28;20052;-60
2022/10/20 03:27:36;;;;;;;5.35;2.35;;;8.60;99.90;;;;;;20911584;28;20185;-61
2022/10/20 03:37:38;;;;;;;5.18;2.40;;;8.50;99.90;;;;;;20955302;28;20040;-61
2022/10/20 03:47:41;;;;;;;4.70;2.30;;;8.40;99.90;;;;;;20963282;28;20048;-60
2022/10/20 03:57:44;;;;;;;8.90;2.70;;;8.30;99.90;;;;;;20908055;28;20632;-65
2022/10/20 04:07:47;;;;;;;5.82;2.25;;;8.30;99.90;;;;;;20878660;28;20040;-65
2022/10/20 04:17:51;;;;;;;5.28;2.90;;;8.20;99.90;;;;;;20918030;28;20548;-61
2022/10/20 04:27:53;;;;;;;8.38;2.45;;;8.30;99.90;;;;;;20905110;28;20045;-66
2022/10/20 04:37:56;;;;;;;6.32;2.47;;;8.30;99.90;;;;;;20901814;28;20074;-61
2022/10/20 04:47:58;;;;;;;7.95;2.70;;;8.30;99.90;;;;;;20948973;28;20053;-65
2022/10/20 04:58:01;;;;;;;12.05;3.08;;;8.40;99.90;;;;;;20917587;28;20041;-66
2022/10/20 05:08:04;;;;;;;5.25;2.90;;;8.50;99.90;;;;;;20958346;28;20560;-66
2022/10/20 05:18:07;;;;;;;6.10;2.58;;;8.40;99.90;;;;;;20935352;28;20033;-63
2022/10/20 05:28:09;;;;;;;9.43;3.08;;;8.30;99.90;;;;;;20898061;28;20494;-66
2022/10/20 05:38:12;;;;;;;11.55;3.20;;;8.20;99.90;;;;;;20940498;28;20033;-65
2022/10/20 05:48:14;;;;;;;8.40;3.53;;;8.20;99.90;;;;;;20965769;28;20394;-61
2022/10/20 05:58:17;;;;;;;14.27;4.00;;;8.20;99.90;;;;;;20898080;28;20095;-67
2022/10/20 06:08:19;;;;;;;8.73;3.67;;;8.40;99.90;;;;;;20940871;28;20037;-65
2022/10/20 06:18:23;;;;;;;7.45;4.22;;;8.80;99.90;;;;;;20946743;28;20032;-66
2022/10/20 06:28:25;;;;;;;13.70;5.07;;;9.10;99.90;;;;;;20890487;28;20037;-61
2022/10/20 06:38:28;;;;;;;9.82;4.90;;;9.50;99.90;;;;;;20939682;28;20037;-62
2022/10/20 06:48:31;;;;;;;15.48;6.30;;;9.90;99.90;;;;;;20963679;28;20102;-61
2022/10/20 06:58:35;;;;;;;30.65;7.47;;;10.20;99.90;;;;;;20892944;28;20099;-61
2022/10/20 07:08:38;;;;;;;10.48;6.10;;;10.60;99.90;;;;;;20924729;28;20029;-62
2022/10/20 07:18:41;;;;;;;14.70;7.28;;;11.20;99.90;;;;;;20971870;28;20109;-67
2022/10/20 07:28:48;;;;;;;8.90;7.00;;;12.20;99.90;;;;;;20901760;28;20431;-62
2022/10/20 07:38:56;;;;;;;11.30;7.72;;;13.30;99.90;;;;;;20924675;28;20086;-62
2022/10/20 07:48:59;;;;;;;11.52;8.23;;;14.20;99.90;;;;;;20962893;28;20658;-62
2022/10/20 07:59:02;;;;;;;12.38;7.07;;;15.00;99.90;;;;;;20976054;28;20094;-68
2022/10/20 08:09:04;;;;;;;14.43;8.18;;;15.80;99.90;;;;;;20957592;28;20051;-68
2022/10/20 08:19:07;;;;;;;12.20;8.50;;;16.00;99.90;;;;;;20957447;28;20535;-66
2022/10/20 08:29:11;;;;;;;14.57;9.25;;;15.90;99.90;;;;;;20959660;28;20068;-67
2022/10/20 08:39:13;;;;;;;13.10;7.57;;;15.80;99.90;;;;;;20958183;28;20114;-67
2022/10/20 08:49:29;;;;;;;12.35;8.35;;;16.30;99.90;;;;;;20956348;28;20152;-67
2022/10/20 08:59:36;;;;;;;11.45;8.40;;;16.60;99.90;;;;;;20991941;28;20041;-66
2022/10/20 09:09:39;;;;;;;10.70;8.20;;;16.70;99.90;;;;;;20969336;28;20094;-66
2022/10/20 09:19:47;;;;;;;11.75;7.95;;;16.50;99.90;;;;;;20938137;28;20040;-62
2022/10/20 09:29:51;;;;;;;11.75;7.93;;;16.00;99.90;;;;;;20960110;28;20135;-62
2022/10/20 09:39:58;;;;;;;15.15;8.25;;;15.80;99.90;;;;;;20944951;28;20037;-66
2022/10/20 09:50:04;;;;;;;10.75;8.20;;;16.10;99.90;;;;;;20957067;28;20037;-68
2022/10/20 10:00:21;;;;;;;11.23;8.20;;;16.30;99.90;;;;;;20977516;28;20045;-63
2022/10/20 10:10:26;;;;;;;14.43;9.85;;;17.30;99.90;;;;;;20936872;28;20028;-68
2022/10/20 10:20:39;;;;;;;11.13;8.77;;;17.80;99.90;;;;;;20917797;28;20091;-63
2022/10/20 10:30:43;;;;;;;12.18;8.43;;;18.20;99.90;;;;;;20961826;28;20474;-62
2022/10/20 10:41:05;;;;;;;10.88;7.85;;;18.10;99.90;;;;;;20946260;28;20036;-63
2022/10/20 10:51:24;;;;;;;9.45;6.60;;;18.50;99.90;;;;;;21029021;28;20036;-62
2022/10/20 11:01:57;;;;;;;8.93;6.27;;;19.10;99.90;;;;;;21046936;28;20044;-63
2022/10/20 11:12:03;;;;;;;8.40;6.45;;;19.50;99.90;;;;;;21038722;28;20081;-62
2022/10/20 11:22:17;;;;;;;11.48;8.27;;;19.20;99.90;;;;;;21033853;28;20086;-63
2022/10/20 11:32:46;;;;;;;10.65;6.63;;;19.00;99.90;;;;;;21034950;28;20039;-62
2022/10/20 11:43:07;;;;;;;6.63;5.10;;;19.40;99.90;;;;;;21016647;28;20178;-68
2022/10/20 11:53:28;;;;;;;12.30;7.68;;;19.30;99.90;;;;;;20960741;28;20059;-68
2022/10/20 12:04:06;;;;;;;12.05;7.97;;;18.70;99.90;;;;;;20954036;28;20029;-66
2022/10/20 12:14:14;;;;;;;9.95;7.90;;;18.10;99.90;;;;;;20722889;28;20108;-67
2022/10/20 12:24:39;;;;;;;10.32;7.50;;;18.40;99.90;;;;;;20721544;28;20049;-66
2022/10/20 12:34:42;;;;;;;9.57;6.47;;;18.50;99.90;;;;;;20710496;28;20049;-67
2022/10/20 12:44:46;;;;;;;9.43;6.90;;;18.00;99.90;;;;;;20896185;28;20570;-66
2022/10/20 12:55:30;;;;;;;9.23;7.03;;;17.70;99.90;;;;;;21013210;28;20459;-67
2022/10/20 13:05:43;;;;;;;10.00;6.43;;;17.30;99.90;;;;;;20632512;28;20042;-61
2022/10/20 13:15:50;;;;;;;11.98;8.35;;;17.10;99.90;;;;;;20614564;28;20460;-66
2022/10/20 13:25:56;;;;;;;9.43;6.57;;;17.00;99.90;;;;;;20608607;28;20050;-62
2022/10/20 13:36:03;;;;;;;14.73;10.05;;;16.80;99.90;;;;;;20848906;28;20098;-62
2022/10/20 13:46:29;;;;;;;15.15;11.43;;;16.40;99.90;;;;;;20982823;28;20126;-62
2022/10/20 13:56:47;;;;;;;17.77;12.77;;;16.10;99.90;;;;;;20969613;28;20040;-66
2022/10/20 14:06:50;;;;;;;21.33;16.15;;;16.00;99.90;;;;;;20968504;28;20107;-61
2022/10/20 14:16:59;;;;;;;22.83;15.23;;;15.50;99.90;;;;;;20968688;28;20374;-61
2022/10/20 14:27:04;;;;;;;20.93;15.43;;;14.80;99.90;;;;;;20813007;28;20462;-61
2022/10/20 14:37:24;;;;;;;22.60;16.52;;;14.50;99.90;;;;;;20819495;28;20037;-66
2022/10/20 14:47:36;;;;;;;23.48;16.23;;;14.50;99.90;;;;;;20849446;28;20568;-66
2022/10/20 14:57:44;;;;;;;21.13;16.33;;;14.70;99.90;;;;;;20877169;28;20040;-62
2022/10/20 15:07:48;;;;;;;23.85;17.27;;;14.60;99.90;;;;;;20988469;28;20044;-61
2022/10/20 15:18:08;;;;;;;22.88;16.58;;;14.10;99.90;;;;;;20929888;28;20402;-66
2022/10/20 15:28:38;;;;;;;27.50;17.88;;;13.60;99.90;;;;;;20907727;28;20425;-62
2022/10/20 15:38:42;;;;;;;24.17;17.00;;;13.20;99.90;;;;;;20918766;28;20390;-65
2022/10/20 15:48:45;;;;;;;23.85;16.75;;;12.90;99.90;;;;;;20973762;28;20049;-65
2022/10/20 15:58:50;;;;;;;26.90;18.13;;;12.60;99.90;;;;;;20919264;28;20048;-61
2022/10/20 16:08:52;;;;;;;24.83;17.48;;;12.20;99.90;;;;;;20938800;28;20028;-65
2022/10/20 16:18:55;;;;;;;24.13;16.67;;;11.80;99.90;;;;;;20949319;28;20041;-65
2022/10/20 16:28:58;;;;;;;26.92;18.02;;;11.50;99.90;;;;;;20914176;28;20041;-65
2022/10/20 16:39:02;;;;;;;26.25;18.27;;;11.60;99.90;;;;;;20851600;28;20045;-66
2022/10/20 16:49:05;;;;;;;22.15;16.02;;;11.50;99.90;;;;;;20787156;28;20100;-61
2022/10/20 16:59:08;;;;;;;30.80;20.40;;;11.50;99.90;;;;;;20799314;28;20053;-65
2022/10/20 17:09:10;;;;;;;27.80;19.15;;;11.40;99.90;;;;;;20782127;28;20061;-61
2022/10/20 17:19:13;;;;;;;32.13;20.88;;;11.40;99.90;;;;;;20869320;28;20456;-60
2022/10/20 17:29:15;;;;;;;30.77;21.92;;;11.40;99.90;;;;;;20959992;28;20036;-60
2022/10/20 17:39:20;;;;;;;34.53;23.23;;;11.40;99.90;;;;;;20946818;28;20032;-64
2022/10/20 17:49:23;;;;;;;35.28;23.80;;;11.20;99.90;;;;;;20974390;28;20057;-60
2022/10/20 17:59:25;;;;;;;38.95;23.67;;;11.10;99.90;;;;;;20982401;28;20044;-61
2022/10/20 18:09:28;;;;;;;42.00;25.58;;;10.90;99.90;;;;;;20945303;28;20037;-65
2022/10/20 18:19:31;;;;;;;36.88;24.98;;;10.60;99.90;;;;;;20921498;28;20029;-65
2022/10/20 18:29:33;;;;;;;45.08;26.35;;;10.20;99.90;;;;;;20965292;28;20036;-65
2022/10/20 18:39:36;;;;;;;50.55;29.58;;;9.90;99.90;;;;;;20945239;28;20041;-65
2022/10/20 18:49:39;;;;;;;47.47;27.77;;;10.00;99.90;;;;;;20957989;28;20049;-61
2022/10/20 18:59:41;;;;;;;55.03;30.65;;;10.00;99.90;;;;;;20964283;28;20082;-65
2022/10/20 19:09:44;;;;;;;62.40;34.55;;;9.90;99.90;;;;;;20936585;28;20107;-61
2022/10/20 19:19:46;;;;;;;59.10;35.40;;;9.90;99.90;;;;;;20943884;28;20038;-60
2022/10/20 19:29:49;;;;;;;53.67;32.67;;;10.30;99.90;;;;;;20994756;28;20032;-65
2022/10/20 19:39:52;;;;;;;62.30;36.17;;;10.20;99.90;;;;;;20934522;28;20090;-65
2022/10/20 19:49:55;;;;;;;55.47;33.08;;;10.20;99.90;;;;;;21055535;28;20149;-60
2022/10/20 19:59:57;;;;;;;71.20;39.20;;;10.30;99.90;;;;;;21036789;28;20103;-60
2022/10/20 20:10:00;;;;;;;59.58;36.15;;;10.40;99.90;;;;;;21023194;28;20094;-65
2022/10/20 20:20:03;;;;;;;52.45;32.80;;;10.60;99.90;;;;;;21038552;28;20032;-60
2022/10/20 20:30:05;;;;;;;49.25;30.90;;;10.60;99.90;;;;;;21029836;28;20040;-65
2022/10/20 20:40:09;;;;;;;47.17;30.52;;;10.70;99.90;;;;;;21036253;28;20035;-61
2022/10/20 20:50:12;;;;;;;60.42;33.25;;;10.50;99.90;;;;;;20974266;28;20393;-60
2022/10/20 21:00:15;;;;;;;46.45;29.15;;;10.10;99.90;;;;;;20957292;28;20041;-65
2022/10/20 21:10:17;;;;;;;48.25;28.25;;;10.00;99.90;;;;;;20973760;28;20040;-60
2022/10/20 21:20:20;;;;;;;52.20;30.23;;;9.80;99.90;;;;;;20990173;28;20082;-60
2022/10/20 21:30:22;;;;;;;54.28;31.30;;;9.80;99.90;;;;;;20971212;28;20485;-60
2022/10/20 21:40:24;;;;;;;40.47;25.95;;;9.90;99.90;;;;;;20955009;28;20044;-60
2022/10/20 21:50:28;;;;;;;42.10;26.30;;;9.70;99.90;;;;;;20969752;28;20040;-60
2022/10/20 22:00:30;;;;;;;43.10;25.08;;;9.60;99.90;;;;;;20952919;28;20498;-65
2022/10/20 22:10:35;;;;;;;66.93;33.33;;;9.60;99.90;;;;;;20952237;28;20556;-65
2022/10/20 22:20:37;;;;;;;56.30;28.80;;;9.70;99.90;;;;;;20968135;28;20095;-60
2022/10/20 22:30:40;;;;;;;58.95;30.98;;;9.80;99.90;;;;;;20955854;28;20040;-61
2022/10/20 22:40:42;;;;;;;42.63;24.85;;;9.90;99.90;;;;;;20955806;28;20056;-60
2022/10/20 22:50:45;;;;;;;34.35;20.27;;;10.10;99.90;;;;;;21011508;28;20467;-61
2022/10/20 23:00:48;;;;;;;42.72;25.77;;;10.00;99.90;;;;;;21053177;28;20070;-66
2022/10/20 23:10:57;;;;;;;40.10;23.92;;;10.10;99.90;;;;;;21061081;28;20094;-60
2022/10/20 23:21:18;;;;;;;27.23;17.77;;;10.50;99.90;;;;;;21069602;28;20035;-65
2022/10/20 23:31:21;;;;;;;26.58;16.48;;;10.60;99.90;;;;;;21039325;28;20157;-62
2022/10/20 23:41:24;;;;;;;20.77;12.77;;;10.60;99.90;;;;;;21049262;28;20075;-65
2022/10/20 23:51:27;;;;;;;23.58;14.52;;;10.40;99.90;;;;;;20963952;28;20032;-66
